sensor_id;sensor_type;location;lat;lon;timestamp;pressure;altitude;pressure_sealevel;temperature;humidity
49999;BME280;68071;45.062;7.356;2023-06-22T00:01:49;95548.84;;;20.01;100.00
49999;BME280;68071;45.062;7.356;2023-06-22T00:04:53;95548.06;;;20.01;100.00
49999;BME280;68071;45.062;7.356;2023-06-22T00:07:57;95558.56;;;19.33;100.00
49999;BME280;68071;45.062;7.356;2023-06-22T00:11:01;95571.97;;;19.39;100.00
49999;BME280;68071;45.062;7.356;2023-06-22T00:14:04;95569.72;;;20.41;98.25
49999;BME280;68071;45.062;7.356;2023-06-22T00:17:08;95557.81;;;19.64;100.00
49999;BME280;68071;45.062;7.356;2023-06-22T00:20:13;95563.59;;;18.68;100.00
49999;BME280;68071;45.062;7.356;2023-06-22T00:23:17;95570.88;;;18.66;100.00
49999;BME280;68071;45.062;7.356;2023-06-22T00:26:21;95567.13;;;18.95;100.00
49999;BME280;68071;45.062;7.356;2023-06-22T00:29:25;95553.34;;;19.00;100.00
49999;BME280;68071;45.062;7.356;2023-06-22T00:32:29;95555.56;;;18.93;100.00
49999;BME280;68071;45.062;7.356;2023-06-22T00:35:33;95545.28;;;18.89;100.00
49999;BME280;68071;45.062;7.356;2023-06-22T00:38:37;95540.25;;;19.19;100.00
49999;BME280;68071;45.062;7.356;2023-06-22T00:41:43;95520.56;;;19.10;100.00
49999;BME280;68071;45.062;7.356;2023-06-22T00:44:47;95505.25;;;19.46;100.00
49999;BME280;68071;45.062;7.356;2023-06-22T00:47:51;95495.34;;;19.32;100.00
49999;BME280;68071;45.062;7.356;2023-06-22T00:50:55;95508.31;;;19.17;100.00
49999;BME280;68071;45.062;7.356;2023-06-22T00:54:00;95511.44;;;19.19;100.00
49999;BME280;68071;45.062;7.356;2023-06-22T00:57:04;95536.66;;;19.19;100.00
49999;BME280;68071;45.062;7.356;2023-06-22T01:00:08;95557.97;;;19.39;100.00
49999;BME280;68071;45.062;7.356;2023-06-22T01:03:13;95523.44;;;18.84;100.00
49999;BME280;68071;45.062;7.356;2023-06-22T01:06:21;95499.16;;;19.48;100.00
49999;BME280;68071;45.062;7.356;2023-06-22T01:09:32;95494.66;;;19.50;100.00
49999;BME280;68071;45.062;7.356;2023-06-22T01:12:58;95521.03;;;19.09;100.00
49999;BME280;68071;45.062;7.356;2023-06-22T01:16:13;95543.97;;;19.70;100.00
49999;BME280;68071;45.062;7.356;2023-06-22T01:20:05;95546.81;;;20.02;100.00
49999;BME280;68071;45.062;7.356;2023-06-22T01:29:23;95562.38;;;19.71;100.00
49999;BME280;68071;45.062;7.356;2023-06-22T01:32:29;95575.84;;;19.54;100.00
49999;BME280;68071;45.062;7.356;2023-06-22T01:35:35;95579.56;;;20.05;100.00
49999;BME280;68071;45.062;7.356;2023-06-22T01:38:39;95564.03;;;19.15;100.00
49999;BME280;68071;45.062;7.356;2023-06-22T01:41:43;95563.59;;;18.68;100.00
49999;BME280;68071;45.062;7.356;2023-06-22T01:44:47;95552.28;;;18.72;100.00
49999;BME280;68071;45.062;7.356;2023-06-22T01:47:51;95529.13;;;18.58;100.00
49999;BME280;68071;45.062;7.356;2023-06-22T01:50:55;95534.56;;;18.75;100.00
49999;BME280;68071;45.062;7.356;2023-06-22T01:53:59;95548.66;;;18.97;100.00
49999;BME280;68071;45.062;7.356;2023-06-22T01:57:04;95555.72;;;19.11;100.00
49999;BME280;68071;45.062;7.356;2023-06-22T02:00:30;95550.06;;;19.24;100.00
49999;BME280;68071;45.062;7.356;2023-06-22T02:03:34;95535.66;;;18.90;100.00
49999;BME280;68071;45.062;7.356;2023-06-22T02:06:40;95530.66;;;18.72;100.00
49999;BME280;68071;45.062;7.356;2023-06-22T02:09:49;95524.84;;;18.67;100.00
49999;BME280;68071;45.062;7.356;2023-06-22T02:12:54;95519.06;;;18.96;100.00
49999;BME280;68071;45.062;7.356;2023-06-22T02:16:01;95518.28;;;18.83;100.00
49999;BME280;68071;45.062;7.356;2023-06-22T02:19:05;95526.69;;;18.35;100.00
49999;BME280;68071;45.062;7.356;2023-06-22T02:22:11;95544.03;;;19.26;100.00
49999;BME280;68071;45.062;7.356;2023-06-22T02:25:16;95545.19;;;19.60;100.00
49999;BME280;68071;45.062;7.356;2023-06-22T02:28:22;95531.84;;;19.19;100.00
49999;BME280;68071;45.062;7.356;2023-06-22T02:31:25;95519.00;;;19.09;100.00
49999;BME280;68071;45.062;7.356;2023-06-22T02:34:33;95522.91;;;18.77;100.00
49999;BME280;68071;45.062;7.356;2023-06-22T02:37:37;95531.63;;;18.43;100.00
49999;BME280;68071;45.062;7.356;2023-06-22T02:40:45;95525.38;;;18.39;100.00
49999;BME280;68071;45.062;7.356;2023-06-22T02:43:49;95516.66;;;18.24;100.00
49999;BME280;68071;45.062;7.356;2023-06-22T02:46:57;95524.00;;;18.44;100.00
49999;BME280;68071;45.062;7.356;2023-06-22T02:50:00;95538.00;;;18.44;100.00
49999;BME280;68071;45.062;7.356;2023-06-22T02:53:04;95530.66;;;18.24;100.00
49999;BME280;68071;45.062;7.356;2023-06-22T02:56:13;95542.38;;;18.32;100.00
49999;BME280;68071;45.062;7.356;2023-06-22T02:59:16;95537.81;;;17.99;100.00
49999;BME280;68071;45.062;7.356;2023-06-22T03:02:22;95539.38;;;18.26;100.00
49999;BME280;68071;45.062;7.356;2023-06-22T03:05:26;95544.84;;;17.91;100.00
49999;BME280;68071;45.062;7.356;2023-06-22T03:08:31;95545.31;;;18.03;100.00
49999;BME280;68071;45.062;7.356;2023-06-22T03:11:35;95547.56;;;18.21;100.00
49999;BME280;68071;45.062;7.356;2023-06-22T03:14:39;95544.75;;;18.08;100.00
49999;BME280;68071;45.062;7.356;2023-06-22T03:17:42;95554.69;;;17.83;100.00
49999;BME280;68071;45.062;7.356;2023-06-22T03:20:46;95547.66;;;17.91;100.00
49999;BME280;68071;45.062;7.356;2023-06-22T03:23:50;95554.81;;;17.92;100.00
49999;BME280;68071;45.062;7.356;2023-06-22T03:26:54;95568.91;;;17.76;100.00
49999;BME280;68071;45.062;7.356;2023-06-22T03:29:57;95583.19;;;17.91;100.00
49999;BME280;68071;45.062;7.356;2023-06-22T03:33:02;95588.31;;;17.66;100.00
49999;BME280;68071;45.062;7.356;2023-06-22T03:36:05;95599.72;;;17.72;100.00
49999;BME280;68071;45.062;7.356;2023-06-22T03:39:09;95609.34;;;17.71;100.00
49999;BME280;68071;45.062;7.356;2023-06-22T03:42:13;95611.84;;;17.95;100.00
49999;BME280;68071;45.062;7.356;2023-06-22T03:45:17;95611.00;;;17.98;100.00
49999;BME280;68071;45.062;7.356;2023-06-22T03:48:21;95608.09;;;18.14;100.00
49999;BME280;68071;45.062;7.356;2023-06-22T03:51:25;95594.09;;;18.14;100.00
49999;BME280;68071;45.062;7.356;2023-06-22T03:54:29;95570.34;;;18.58;100.00
49999;BME280;68071;45.062;7.356;2023-06-22T03:57:33;95540.81;;;18.31;100.00
49999;BME280;68071;45.062;7.356;2023-06-22T04:00:37;95535.78;;;18.26;100.00
49999;BME280;68071;45.062;7.356;2023-06-22T04:03:41;95551.88;;;18.48;100.00
49999;BME280;68071;45.062;7.356;2023-06-22T04:06:45;95551.25;;;18.31;100.00
49999;BME280;68071;45.062;7.356;2023-06-22T04:09:49;95557.72;;;18.27;100.00
49999;BME280;68071;45.062;7.356;2023-06-22T04:12:53;95569.56;;;17.67;100.00
49999;BME280;68071;45.062;7.356;2023-06-22T04:15:57;95585.41;;;17.70;100.00
49999;BME280;68071;45.062;7.356;2023-06-22T04:19:01;95597.47;;;18.35;100.00
49999;BME280;68071;45.062;7.356;2023-06-22T04:22:05;95602.06;;;18.03;100.00
49999;BME280;68071;45.062;7.356;2023-06-22T04:25:10;95577.94;;;17.93;100.00
49999;BME280;68071;45.062;7.356;2023-06-22T04:28:14;95549.13;;;18.22;100.00
49999;BME280;68071;45.062;7.356;2023-06-22T04:31:18;95519.13;;;18.22;100.00
49999;BME280;68071;45.062;7.356;2023-06-22T04:34:25;95516.25;;;18.13;100.00
49999;BME280;68071;45.062;7.356;2023-06-22T04:37:32;95529.63;;;18.31;100.00
49999;BME280;68071;45.062;7.356;2023-06-22T04:40:36;95519.81;;;19.63;100.00
49999;BME280;68071;45.062;7.356;2023-06-22T04:43:40;95519.22;;;19.69;100.00
49999;BME280;68071;45.062;7.356;2023-06-22T04:46:44;95512.47;;;19.88;98.46
49999;BME280;68071;45.062;7.356;2023-06-22T04:49:48;95514.41;;;19.47;100.00
49999;BME280;68071;45.062;7.356;2023-06-22T04:52:52;95522.63;;;18.97;100.00
49999;BME280;68071;45.062;7.356;2023-06-22T04:55:56;95543.13;;;18.58;100.00
49999;BME280;68071;45.062;7.356;2023-06-22T04:58:59;95548.66;;;18.97;100.00
49999;BME280;68071;45.062;7.356;2023-06-22T05:02:04;95527.53;;;19.82;100.00
49999;BME280;68071;45.062;7.356;2023-06-22T05:05:08;95535.94;;;18.93;100.00
49999;BME280;68071;45.062;7.356;2023-06-22T05:08:12;95541.16;;;18.81;100.00
49999;BME280;68071;45.062;7.356;2023-06-22T05:11:16;95561.28;;;19.24;100.00
49999;BME280;68071;45.062;7.356;2023-06-22T05:14:20;95569.34;;;19.00;100.00
49999;BME280;68071;45.062;7.356;2023-06-22T05:17:24;95585.31;;;19.12;100.00
49999;BME280;68071;45.062;7.356;2023-06-22T05:20:28;95602.78;;;19.16;100.00
49999;BME280;68071;45.062;7.356;2023-06-22T05:23:32;95602.38;;;19.40;100.00
49999;BME280;68071;45.062;7.356;2023-06-22T05:26:36;95591.69;;;20.02;92.10
49999;BME280;68071;45.062;7.356;2023-06-22T05:29:39;95591.34;;;19.46;100.00
49999;BME280;68071;45.062;7.356;2023-06-22T05:32:43;95605.22;;;19.27;100.00
49999;BME280;68071;45.062;7.356;2023-06-22T05:35:47;95604.81;;;19.60;99.04
49999;BME280;68071;45.062;7.356;2023-06-22T05:38:51;95583.25;;;19.48;100.00
49999;BME280;68071;45.062;7.356;2023-06-22T05:41:56;95585.69;;;19.01;100.00
49999;BME280;68071;45.062;7.356;2023-06-22T05:44:59;95586.78;;;19.17;100.00
49999;BME280;68071;45.062;7.356;2023-06-22T05:48:03;95586.13;;;19.35;100.00
49999;BME280;68071;45.062;7.356;2023-06-22T05:51:07;95575.06;;;19.31;100.00
49999;BME280;68071;45.062;7.356;2023-06-22T05:54:10;95567.09;;;19.30;100.00
49999;BME280;68071;45.062;7.356;2023-06-22T05:57:16;95583.00;;;19.33;100.00
49999;BME280;68071;45.062;7.356;2023-06-22T06:00:20;95592.13;;;19.24;100.00
49999;BME280;68071;45.062;7.356;2023-06-22T06:03:26;95595.66;;;19.38;100.00
49999;BME280;68071;45.062;7.356;2023-06-22T06:06:32;95576.72;;;19.73;100.00
49999;BME280;68071;45.062;7.356;2023-06-22T06:09:38;95574.44;;;20.13;100.00
49999;BME280;68071;45.062;7.356;2023-06-22T06:12:42;95570.97;;;20.40;100.00
49999;BME280;68071;45.062;7.356;2023-06-22T06:15:46;95579.84;;;20.38;100.00
49999;BME280;68071;45.062;7.356;2023-06-22T06:18:51;95574.28;;;20.16;100.00
49999;BME280;68071;45.062;7.356;2023-06-22T06:21:56;95577.88;;;20.58;100.00
49999;BME280;68071;45.062;7.356;2023-06-22T06:25:01;95586.53;;;20.82;100.00
49999;BME280;68071;45.062;7.356;2023-06-22T06:28:04;95600.47;;;21.23;100.00
49999;BME280;68071;45.062;7.356;2023-06-22T06:31:08;95604.97;;;21.76;94.52
49999;BME280;68071;45.062;7.356;2023-06-22T06:34:12;95585.13;;;21.52;98.41
49999;BME280;68071;45.062;7.356;2023-06-22T06:37:16;95568.66;;;21.97;71.88
49999;BME280;68071;45.062;7.356;2023-06-22T06:40:20;95579.47;;;21.98;89.00
49999;BME280;68071;45.062;7.356;2023-06-22T06:43:24;95576.22;;;22.24;96.65
49999;BME280;68071;45.062;7.356;2023-06-22T06:46:28;95572.47;;;22.61;91.32
49999;BME280;68071;45.062;7.356;2023-06-22T06:49:33;95590.75;;;22.65;69.02
49999;BME280;68071;45.062;7.356;2023-06-22T06:52:37;95600.44;;;22.74;89.52
49999;BME280;68071;45.062;7.356;2023-06-22T06:55:41;95598.59;;;22.61;92.01
49999;BME280;68071;45.062;7.356;2023-06-22T06:58:45;95595.09;;;23.24;88.09
49999;BME280;68071;45.062;7.356;2023-06-22T07:01:49;95590.53;;;23.27;86.28
49999;BME280;68071;45.062;7.356;2023-06-22T07:04:53;95582.47;;;23.10;91.00
49999;BME280;68071;45.062;7.356;2023-06-22T07:07:59;95586.34;;;22.98;89.29
49999;BME280;68071;45.062;7.356;2023-06-22T07:11:02;95590.41;;;22.73;88.84
49999;BME280;68071;45.062;7.356;2023-06-22T07:14:06;95593.72;;;22.95;93.34
49999;BME280;68071;45.062;7.356;2023-06-22T07:17:10;95597.38;;;22.87;94.68
49999;BME280;68071;45.062;7.356;2023-06-22T07:20:14;95593.50;;;23.33;97.79
49999;BME280;68071;45.062;7.356;2023-06-22T07:23:18;95599.50;;;23.80;90.52
49999;BME280;68071;45.062;7.356;2023-06-22T07:26:22;95595.81;;;24.19;82.14
49999;BME280;68071;45.062;7.356;2023-06-22T07:29:25;95610.63;;;24.64;70.06
49999;BME280;68071;45.062;7.356;2023-06-22T07:32:30;95599.13;;;25.03;70.28
49999;BME280;68071;45.062;7.356;2023-06-22T07:35:33;95603.78;;;25.06;67.20
49999;BME280;68071;45.062;7.356;2023-06-22T07:38:37;95604.13;;;24.58;75.57
49999;BME280;68071;45.062;7.356;2023-06-22T07:41:41;95609.25;;;24.74;77.39
49999;BME280;68071;45.062;7.356;2023-06-22T07:44:45;95613.75;;;25.22;70.86
49999;BME280;68071;45.062;7.356;2023-06-22T07:47:49;95616.03;;;25.60;69.16
49999;BME280;68071;45.062;7.356;2023-06-22T07:50:53;95623.88;;;25.71;65.11
49999;BME280;68071;45.062;7.356;2023-06-22T07:53:57;95601.59;;;25.84;62.65
49999;BME280;68071;45.062;7.356;2023-06-22T07:57:01;95597.44;;;26.06;65.38
49999;BME280;68071;45.062;7.356;2023-06-22T08:00:05;95585.63;;;26.07;60.63
49999;BME280;68071;45.062;7.356;2023-06-22T08:03:19;95587.47;;;26.42;60.47
49999;BME280;68071;45.062;7.356;2023-06-22T08:06:24;95579.94;;;26.34;57.33
49999;BME280;68071;45.062;7.356;2023-06-22T08:09:28;95578.41;;;26.38;58.03
49999;BME280;68071;45.062;7.356;2023-06-22T08:12:32;95573.88;;;26.52;49.85
49999;BME280;68071;45.062;7.356;2023-06-22T08:15:36;95567.00;;;25.74;50.92
49999;BME280;68071;45.062;7.356;2023-06-22T08:18:40;95561.84;;;25.46;65.42
49999;BME280;68071;45.062;7.356;2023-06-22T08:21:43;95561.75;;;25.88;62.57
49999;BME280;68071;45.062;7.356;2023-06-22T08:24:47;95568.00;;;25.97;60.66
49999;BME280;68071;45.062;7.356;2023-06-22T08:27:51;95577.72;;;25.64;76.31
49999;BME280;68071;45.062;7.356;2023-06-22T08:30:55;95570.16;;;26.35;62.99
49999;BME280;68071;45.062;7.356;2023-06-22T08:33:59;95547.91;;;26.22;57.11
49999;BME280;68071;45.062;7.356;2023-06-22T08:37:03;95548.84;;;26.13;43.97
49999;BME280;68071;45.062;7.356;2023-06-22T08:40:09;95587.63;;;26.65;42.96
49999;BME280;68071;45.062;7.356;2023-06-22T08:43:14;95588.59;;;27.00;43.14
49999;BME280;68071;45.062;7.356;2023-06-22T08:46:18;95559.22;;;26.60;45.09
49999;BME280;68071;45.062;7.356;2023-06-22T08:49:25;95526.56;;;26.70;43.28
49999;BME280;68071;45.062;7.356;2023-06-22T08:52:29;95544.16;;;25.51;53.94
49999;BME280;68071;45.062;7.356;2023-06-22T08:55:33;95561.00;;;25.93;50.40
49999;BME280;68071;45.062;7.356;2023-06-22T08:58:37;95557.91;;;24.61;66.65
49999;BME280;68071;45.062;7.356;2023-06-22T09:01:40;95550.97;;;24.41;53.67
49999;BME280;68071;45.062;7.356;2023-06-22T09:04:48;95548.78;;;24.51;67.62
49999;BME280;68071;45.062;7.356;2023-06-22T09:07:53;95527.94;;;24.13;73.12
49999;BME280;68071;45.062;7.356;2023-06-22T09:11:00;95508.00;;;24.73;72.06
49999;BME280;68071;45.062;7.356;2023-06-22T09:14:04;95514.31;;;25.82;49.45
49999;BME280;68071;45.062;7.356;2023-06-22T09:17:08;95516.34;;;25.50;49.22
49999;BME280;68071;45.062;7.356;2023-06-22T09:20:12;95521.34;;;25.40;48.49
49999;BME280;68071;45.062;7.356;2023-06-22T09:23:16;95525.44;;;26.56;47.68
49999;BME280;68071;45.062;7.356;2023-06-22T09:26:20;95526.75;;;26.61;42.14
49999;BME280;68071;45.062;7.356;2023-06-22T09:29:24;95518.53;;;27.17;48.29
49999;BME280;68071;45.062;7.356;2023-06-22T09:32:28;95504.91;;;26.72;42.05
49999;BME280;68071;45.062;7.356;2023-06-22T09:35:32;95492.81;;;26.28;48.24
49999;BME280;68071;45.062;7.356;2023-06-22T09:38:36;95493.53;;;26.67;43.09
49999;BME280;68071;45.062;7.356;2023-06-22T09:41:40;95498.63;;;26.51;46.98
49999;BME280;68071;45.062;7.356;2023-06-22T09:44:44;95517.50;;;26.22;52.41
49999;BME280;68071;45.062;7.356;2023-06-22T09:47:48;95535.78;;;25.95;54.46
49999;BME280;68071;45.062;7.356;2023-06-22T09:50:52;95522.94;;;26.69;52.48
49999;BME280;68071;45.062;7.356;2023-06-22T09:53:56;95522.59;;;26.56;52.97
49999;BME280;68071;45.062;7.356;2023-06-22T09:57:00;95505.91;;;25.94;52.91
49999;BME280;68071;45.062;7.356;2023-06-22T10:00:03;95444.16;;;25.34;52.80
49999;BME280;68071;45.062;7.356;2023-06-22T10:03:09;95459.50;;;25.27;58.64
49999;BME280;68071;45.062;7.356;2023-06-22T10:06:13;95460.34;;;25.60;57.80
49999;BME280;68071;45.062;7.356;2023-06-22T10:09:17;95460.41;;;25.97;53.12
49999;BME280;68071;45.062;7.356;2023-06-22T10:12:20;95471.88;;;26.64;50.71
49999;BME280;68071;45.062;7.356;2023-06-22T10:15:24;95480.38;;;26.20;56.99
49999;BME280;68071;45.062;7.356;2023-06-22T10:18:30;95493.72;;;26.52;51.95
49999;BME280;68071;45.062;7.356;2023-06-22T10:21:34;95479.66;;;25.93;53.61
49999;BME280;68071;45.062;7.356;2023-06-22T10:24:38;95468.41;;;26.37;51.27
49999;BME280;68071;45.062;7.356;2023-06-22T10:27:49;95474.75;;;27.53;57.52
49999;BME280;68071;45.062;7.356;2023-06-22T10:30:53;95483.97;;;27.25;56.96
49999;BME280;68071;45.062;7.356;2023-06-22T10:33:57;95488.47;;;27.94;51.33
49999;BME280;68071;45.062;7.356;2023-06-22T10:37:01;95497.50;;;27.75;53.62
49999;BME280;68071;45.062;7.356;2023-06-22T10:40:05;95505.00;;;28.13;46.02
49999;BME280;68071;45.062;7.356;2023-06-22T10:43:09;95516.28;;;27.44;49.71
49999;BME280;68071;45.062;7.356;2023-06-22T10:46:13;95530.19;;;27.37;46.01
49999;BME280;68071;45.062;7.356;2023-06-22T10:49:17;95512.81;;;27.06;50.27
49999;BME280;68071;45.062;7.356;2023-06-22T10:52:20;95502.50;;;27.14;50.64
49999;BME280;68071;45.062;7.356;2023-06-22T10:55:24;95509.66;;;27.76;48.76
49999;BME280;68071;45.062;7.356;2023-06-22T10:58:28;95499.31;;;28.35;50.19
49999;BME280;68071;45.062;7.356;2023-06-22T11:01:32;95510.06;;;26.25;48.43
49999;BME280;68071;45.062;7.356;2023-06-22T11:04:37;95514.28;;;25.77;50.13
49999;BME280;68071;45.062;7.356;2023-06-22T11:07:43;95516.34;;;25.50;50.57
49999;BME280;68071;45.062;7.356;2023-06-22T11:10:47;95509.94;;;25.81;46.94
49999;BME280;68071;45.062;7.356;2023-06-22T11:13:52;95509.34;;;25.45;49.67
49999;BME280;68071;45.062;7.356;2023-06-22T11:16:56;95508.63;;;25.03;49.77
49999;BME280;68071;45.062;7.356;2023-06-22T11:20:00;95499.44;;;24.88;49.33
49999;BME280;68071;45.062;7.356;2023-06-22T11:23:04;95499.25;;;24.56;52.02
49999;BME280;68071;45.062;7.356;2023-06-22T11:26:10;95493.25;;;24.48;57.72
49999;BME280;68071;45.062;7.356;2023-06-22T11:29:13;95462.41;;;24.86;66.53
49999;BME280;68071;45.062;7.356;2023-06-22T11:32:18;95467.22;;;25.53;62.47
49999;BME280;68071;45.062;7.356;2023-06-22T11:35:21;95458.44;;;25.25;58.75
49999;BME280;68071;45.062;7.356;2023-06-22T11:38:25;95459.56;;;25.59;60.93
49999;BME280;68071;45.062;7.356;2023-06-22T11:41:29;95456.50;;;26.27;50.73
49999;BME280;68071;45.062;7.356;2023-06-22T11:44:33;95438.22;;;26.28;47.07
49999;BME280;68071;45.062;7.356;2023-06-22T11:47:37;95434.41;;;26.37;44.98
49999;BME280;68071;45.062;7.356;2023-06-22T11:50:41;95443.63;;;25.94;43.31
49999;BME280;68071;45.062;7.356;2023-06-22T11:53:45;95434.47;;;26.60;43.64
49999;BME280;68071;45.062;7.356;2023-06-22T11:56:48;95420.00;;;27.24;43.32
49999;BME280;68071;45.062;7.356;2023-06-22T11:59:52;95421.59;;;27.99;39.80
49999;BME280;68071;45.062;7.356;2023-06-22T12:02:56;95409.91;;;27.06;43.75
49999;BME280;68071;45.062;7.356;2023-06-22T12:06:00;95395.56;;;26.54;45.51
49999;BME280;68071;45.062;7.356;2023-06-22T12:09:04;95377.66;;;27.14;45.07
49999;BME280;68071;45.062;7.356;2023-06-22T12:12:10;95359.88;;;27.02;44.50
49999;BME280;68071;45.062;7.356;2023-06-22T12:15:14;95343.38;;;27.75;40.79
49999;BME280;68071;45.062;7.356;2023-06-22T12:18:18;95342.31;;;27.89;41.92
49999;BME280;68071;45.062;7.356;2023-06-22T12:21:24;95352.19;;;27.54;43.86
49999;BME280;68071;45.062;7.356;2023-06-22T12:24:28;95363.00;;;27.61;51.12
49999;BME280;68071;45.062;7.356;2023-06-22T12:27:32;95374.06;;;27.99;42.01
49999;BME280;68071;45.062;7.356;2023-06-22T12:30:36;95367.13;;;27.89;44.30
49999;BME280;68071;45.062;7.356;2023-06-22T12:33:40;95361.59;;;28.31;43.76
49999;BME280;68071;45.062;7.356;2023-06-22T12:36:45;95357.44;;;28.37;43.40
49999;BME280;68071;45.062;7.356;2023-06-22T12:39:51;95369.56;;;28.97;39.65
49999;BME280;68071;45.062;7.356;2023-06-22T12:42:55;95388.09;;;28.56;42.31
49999;BME280;68071;45.062;7.356;2023-06-22T12:45:59;95397.81;;;27.96;44.06
49999;BME280;68071;45.062;7.356;2023-06-22T12:49:03;95399.69;;;27.59;47.03
49999;BME280;68071;45.062;7.356;2023-06-22T12:52:10;95422.19;;;25.87;54.36
49999;BME280;68071;45.062;7.356;2023-06-22T12:55:15;95459.91;;;25.14;52.23
49999;BME280;68071;45.062;7.356;2023-06-22T12:58:19;95503.44;;;24.60;58.31
49999;BME280;68071;45.062;7.356;2023-06-22T13:01:23;95518.72;;;23.97;58.75
49999;BME280;68071;45.062;7.356;2023-06-22T13:04:27;95530.78;;;23.98;57.28
49999;BME280;68071;45.062;7.356;2023-06-22T13:07:31;95514.22;;;23.61;63.08
49999;BME280;68071;45.062;7.356;2023-06-22T13:10:35;95492.31;;;23.25;66.63
49999;BME280;68071;45.062;7.356;2023-06-22T13:13:39;95494.22;;;22.80;65.84
49999;BME280;68071;45.062;7.356;2023-06-22T13:16:43;95538.06;;;21.89;83.22
49999;BME280;68071;45.062;7.356;2023-06-22T13:19:46;95519.44;;;20.93;89.89
49999;BME280;68071;45.062;7.356;2023-06-22T13:22:50;95480.06;;;19.87;100.00
49999;BME280;68071;45.062;7.356;2023-06-22T13:25:54;95474.75;;;19.58;100.00
49999;BME280;68071;45.062;7.356;2023-06-22T13:28:58;95495.63;;;18.90;100.00
49999;BME280;68071;45.062;7.356;2023-06-22T13:32:01;95515.03;;;19.19;100.00
49999;BME280;68071;45.062;7.356;2023-06-22T13:35:05;95484.16;;;19.73;100.00
49999;BME280;68071;45.062;7.356;2023-06-22T13:38:09;95460.41;;;19.87;100.00
49999;BME280;68071;45.062;7.356;2023-06-22T13:41:12;95430.84;;;19.01;100.00
49999;BME280;68071;45.062;7.356;2023-06-22T13:44:16;95391.97;;;18.81;100.00
49999;BME280;68071;45.062;7.356;2023-06-22T13:47:20;95396.59;;;18.97;100.00
49999;BME280;68071;45.062;7.356;2023-06-22T13:50:24;95385.41;;;19.28;100.00
49999;BME280;68071;45.062;7.356;2023-06-22T13:53:28;95370.91;;;19.30;100.00
49999;BME280;68071;45.062;7.356;2023-06-22T13:56:32;95379.31;;;19.71;100.00
49999;BME280;68071;45.062;7.356;2023-06-22T13:59:36;95425.38;;;19.92;100.00
49999;BME280;68071;45.062;7.356;2023-06-22T14:02:39;95427.16;;;20.45;100.00
49999;BME280;68071;45.062;7.356;2023-06-22T14:05:44;95397.78;;;21.11;100.00
49999;BME280;68071;45.062;7.356;2023-06-22T14:08:48;95388.78;;;20.70;100.00
49999;BME280;68071;45.062;7.356;2023-06-22T14:11:53;95339.19;;;20.02;100.00
49999;BME280;68071;45.062;7.356;2023-06-22T14:14:57;95349.97;;;20.13;100.00
49999;BME280;68071;45.062;7.356;2023-06-22T14:18:01;95407.66;;;20.69;100.00
49999;BME280;68071;45.062;7.356;2023-06-22T14:21:05;95413.47;;;20.84;100.00
49999;BME280;68071;45.062;7.356;2023-06-22T14:24:09;95385.06;;;20.82;100.00
49999;BME280;68071;45.062;7.356;2023-06-22T14:27:13;95373.84;;;21.25;100.00
49999;BME280;68071;45.062;7.356;2023-06-22T14:30:16;95376.31;;;22.00;91.21
49999;BME280;68071;45.062;7.356;2023-06-22T14:33:20;95379.59;;;23.16;95.46
49999;BME280;68071;45.062;7.356;2023-06-22T14:36:24;95373.16;;;22.71;96.84
49999;BME280;68071;45.062;7.356;2023-06-22T14:39:28;95372.47;;;24.01;95.32
49999;BME280;68071;45.062;7.356;2023-06-22T14:42:32;95367.84;;;24.87;71.37
49999;BME280;68071;45.062;7.356;2023-06-22T14:45:36;95362.28;;;24.72;80.83
49999;BME280;68071;45.062;7.356;2023-06-22T14:48:39;95368.41;;;23.87;89.76
49999;BME280;68071;45.062;7.356;2023-06-22T14:51:43;95362.09;;;24.34;92.01
49999;BME280;68071;45.062;7.356;2023-06-22T14:54:47;95355.03;;;24.91;82.77
49999;BME280;68071;45.062;7.356;2023-06-22T14:57:51;95362.94;;;24.40;87.62
49999;BME280;68071;45.062;7.356;2023-06-22T15:00:54;95348.31;;;24.89;83.10
49999;BME280;68071;45.062;7.356;2023-06-22T15:03:58;95350.28;;;25.03;80.07
49999;BME280;68071;45.062;7.356;2023-06-22T15:07:02;95331.22;;;25.62;78.62
49999;BME280;68071;45.062;7.356;2023-06-22T15:10:06;95326.34;;;26.12;74.93
49999;BME280;68071;45.062;7.356;2023-06-22T15:13:10;95314.75;;;27.22;63.28
49999;BME280;68071;45.062;7.356;2023-06-22T15:16:14;95329.75;;;28.38;73.18
49999;BME280;68071;45.062;7.356;2023-06-22T15:19:18;95320.41;;;27.05;70.81
49999;BME280;68071;45.062;7.356;2023-06-22T15:22:22;95306.75;;;27.54;68.95
49999;BME280;68071;45.062;7.356;2023-06-22T15:25:26;95309.59;;;27.48;69.43
49999;BME280;68071;45.062;7.356;2023-06-22T15:28:30;95328.16;;;27.61;62.08
49999;BME280;68071;45.062;7.356;2023-06-22T15:31:35;95316.66;;;28.23;66.85
49999;BME280;68071;45.062;7.356;2023-06-22T15:34:39;95317.66;;;28.32;66.08
49999;BME280;68071;45.062;7.356;2023-06-22T15:37:42;95320.63;;;29.04;58.35
49999;BME280;68071;45.062;7.356;2023-06-22T15:40:46;95310.06;;;27.70;63.78
49999;BME280;68071;45.062;7.356;2023-06-22T15:43:50;95317.06;;;27.29;72.84
49999;BME280;68071;45.062;7.356;2023-06-22T15:46:54;95318.69;;;28.29;70.83
49999;BME280;68071;45.062;7.356;2023-06-22T15:49:58;95323.03;;;28.41;65.02
49999;BME280;68071;45.062;7.356;2023-06-22T15:53:02;95316.06;;;28.90;67.98
49999;BME280;68071;45.062;7.356;2023-06-22T15:56:06;95293.13;;;28.71;67.86
49999;BME280;68071;45.062;7.356;2023-06-22T15:59:13;95309.25;;;26.61;79.07
49999;BME280;68071;45.062;7.356;2023-06-22T16:02:17;95320.81;;;25.16;82.20
49999;BME280;68071;45.062;7.356;2023-06-22T16:05:20;95324.69;;;24.19;86.49
49999;BME280;68071;45.062;7.356;2023-06-22T16:08:24;95321.66;;;24.01;91.17
49999;BME280;68071;45.062;7.356;2023-06-22T16:11:28;95324.09;;;24.14;91.13
49999;BME280;68071;45.062;7.356;2023-06-22T16:14:32;95316.97;;;23.27;100.00
49999;BME280;68071;45.062;7.356;2023-06-22T16:17:37;95308.63;;;23.03;100.00